Hovedside
METAR-TAF:

METAR-TAF

Lufthavner :

Kruger Mpumalanga International Airport

Kruger nasjonalpark, Sør-Afrika

breddegrad: 25-23-00S, lengdegrad: 31-06-20E, høyde over havet: 862 m

Gjeldene værobservasjon

Denne rapporten ble laget for 34 minutter siden, klokken 02:00 UTC
Vind 2 kt fra Sør
Temperatur 11°C
Luftfuktighet 82%
Trykk 1029 hPa

METAR: FAKN 140200Z AUTO 19002KT //// // ////// 11/08 Q1029

Tid: 04:34 (02:34 UTC)

Varsel

Denne rapporten ble laget for 17 timer og 34 minutter siden, klokken 09:00 UTC
Varsel gyldig fra 13. klokken 10 UTC til 13. klokken 18 UTC
Vind 3 kt fra skiftende retning
Sikt 10 km eller mer
ingen skyer under 1500 m og ingen bygeskyer

TAF: FAKN 130900Z 1310/1318 VRB03KT CAVOK TX22/1312Z TN14/1318Z

Værobservasjoner og værvarsel for over 4000 flyplasser (METAR- og TAF-rapporter).

Tilgjengelige stasjoner er representert av de røde og gule prikkene på kartet.

Hold musepekeren over prikken for å se navnet på stasjonen.

Klikk så for å se værobservasjoner og -varsler.

For å forandre kartet kan du klikke på den grønne knappen med svart kryss for å zoome inn, på den grønne knappen med strek for å zoome ut, eller på de grønne pilene for å se tilstøtende kart.


METAR-TAF: